createdAt,value
2023-06-11T00:01:41.497Z,2.63
2023-06-11T00:04:09.926Z,2.47
2023-06-11T00:06:40.428Z,2.42
2023-06-11T00:09:08.673Z,2.35
2023-06-11T00:11:42.723Z,2.42
2023-06-11T00:14:11.292Z,2.72
2023-06-11T00:16:42.156Z,2.30
2023-06-11T00:19:10.261Z,3.03
2023-06-11T00:21:44.808Z,2.80
2023-06-11T00:24:14.544Z,2.10
2023-06-11T00:26:42.786Z,2.22
2023-06-11T00:29:11.664Z,2.35
2023-06-11T00:31:39.861Z,2.13
2023-06-11T00:34:07.847Z,2.17
2023-06-11T00:36:36.509Z,2.63
2023-06-11T00:39:07.009Z,2.03
2023-06-11T00:41:35.876Z,2.20
2023-06-11T00:44:04.817Z,2.28
2023-06-11T00:46:33.276Z,2.13
2023-06-11T00:49:01.638Z,2.40
2023-06-11T00:51:30.008Z,3.78
2023-06-11T00:53:58.107Z,2.20
2023-06-11T00:56:28.044Z,2.35
2023-06-11T00:58:56.332Z,1.92
2023-06-11T01:01:31.002Z,2.08
2023-06-11T01:04:02.295Z,1.90
2023-06-11T01:06:34.264Z,2.45
2023-06-11T01:09:05.342Z,2.22
2023-06-11T01:11:39.993Z,2.40
2023-06-11T01:14:14.297Z,2.40
2023-06-11T01:16:48.251Z,2.80
2023-06-11T01:19:34.851Z,2.45
2023-06-11T01:22:10.296Z,1.90
2023-06-11T01:24:56.730Z,2.03
2023-06-11T01:27:41.377Z,1.95
2023-06-11T01:30:18.671Z,2.20
2023-06-11T01:32:53.481Z,1.83
2023-06-11T01:35:25.665Z,2.63
2023-06-11T01:37:57.389Z,1.92
2023-06-11T01:40:33.080Z,2.50
2023-06-11T01:43:01.898Z,1.98
2023-06-11T01:45:33.767Z,1.75
2023-06-11T01:48:02.102Z,2.20
2023-06-11T01:50:31.552Z,2.28
2023-06-11T01:52:59.494Z,1.88
2023-06-11T01:55:29.556Z,2.20
2023-06-11T01:57:57.498Z,2.03
2023-06-11T02:00:25.622Z,2.40
2023-06-11T02:02:54.932Z,2.00
2023-06-11T02:05:23.152Z,2.38
2023-06-11T02:07:51.740Z,2.20
2023-06-11T02:10:19.983Z,2.03
2023-06-11T02:12:48.001Z,1.98
2023-06-11T02:15:16.503Z,2.10
2023-06-11T02:17:44.477Z,1.98
2023-06-11T02:20:16.600Z,2.50
2023-06-11T02:22:45.091Z,1.92
2023-06-11T02:25:13.333Z,2.40
2023-06-11T02:27:41.710Z,2.00
2023-06-11T02:30:10.975Z,2.10
2023-06-11T02:32:40.887Z,2.33
2023-06-11T02:35:10.795Z,2.10
2023-06-11T02:37:40.431Z,2.40
2023-06-11T02:40:09.825Z,2.08
2023-06-11T02:42:38.314Z,2.00
2023-06-11T02:45:07.592Z,1.80
2023-06-11T02:47:35.675Z,2.00
2023-06-11T02:50:03.645Z,1.83
2023-06-11T02:52:31.580Z,2.10
2023-06-11T02:55:00.972Z,2.10
2023-06-11T02:57:29.012Z,1.92
2023-06-11T02:59:56.943Z,1.90
2023-06-11T03:02:25.074Z,2.10
2023-06-11T03:04:52.988Z,2.00
2023-06-11T03:07:21.860Z,2.20
2023-06-11T03:09:49.797Z,2.10
2023-06-11T03:12:19.137Z,2.08
2023-06-11T03:14:47.198Z,1.80
2023-06-11T03:17:15.265Z,2.00
2023-06-11T03:19:43.199Z,2.15
2023-06-11T03:22:12.449Z,2.42
2023-06-11T03:24:40.553Z,3.08
2023-06-11T03:27:29.591Z,1.73
2023-06-11T03:29:57.677Z,2.08
2023-06-11T03:32:26.142Z,2.00
2023-06-11T03:34:54.395Z,1.70
2023-06-11T03:37:24.664Z,2.20
2023-06-11T03:39:57.184Z,2.10
2023-06-11T03:42:26.643Z,2.30
2023-06-11T03:44:56.425Z,2.05
2023-06-11T03:47:26.710Z,1.90
2023-06-11T03:49:54.737Z,1.70
2023-06-11T03:52:22.795Z,2.25
2023-06-11T03:54:51.445Z,2.10
2023-06-11T03:57:19.781Z,1.83
2023-06-11T03:59:48.278Z,1.77
2023-06-11T04:02:18.929Z,2.05
2023-06-11T04:04:47.102Z,1.98
2023-06-11T04:07:15.124Z,1.80
2023-06-11T04:09:43.220Z,1.60
2023-06-11T04:12:12.543Z,2.08
2023-06-11T04:14:41.269Z,1.90
2023-06-11T04:17:09.843Z,1.80
2023-06-11T04:19:40.166Z,1.80
2023-06-11T04:22:09.219Z,2.00
2023-06-11T04:24:37.548Z,1.80
2023-06-11T04:27:08.188Z,1.65
2023-06-11T04:29:38.101Z,1.90
2023-06-11T04:32:08.259Z,1.90
2023-06-11T04:34:38.902Z,1.50
2023-06-11T04:37:09.974Z,1.83
2023-06-11T04:39:40.154Z,2.00
2023-06-11T04:42:09.558Z,1.98
2023-06-11T04:44:37.667Z,1.80
2023-06-11T04:47:07.887Z,2.08
2023-06-11T04:49:38.879Z,1.98
2023-06-11T04:52:09.624Z,2.90
2023-06-11T04:54:38.117Z,1.63
2023-06-11T04:57:07.712Z,1.80
2023-06-11T04:59:35.874Z,2.25
2023-06-11T05:02:04.191Z,2.10
2023-06-11T05:04:32.828Z,2.15
2023-06-11T05:07:02.084Z,1.95
2023-06-11T05:09:32.337Z,1.88
2023-06-11T05:12:00.525Z,1.90
2023-06-11T05:14:30.026Z,1.67
2023-06-11T05:16:58.127Z,2.08
2023-06-11T05:19:26.381Z,1.98
2023-06-11T05:21:54.390Z,2.20
2023-06-11T05:24:22.664Z,2.10
2023-06-11T05:26:58.009Z,2.15
2023-06-11T05:29:27.938Z,1.83
2023-06-11T05:31:58.850Z,2.05
2023-06-11T05:34:27.655Z,2.10
2023-06-11T05:37:00.015Z,2.27
2023-06-11T05:39:28.230Z,2.35
2023-06-11T05:41:57.905Z,2.10
2023-06-11T05:44:26.318Z,2.50
2023-06-11T05:46:54.427Z,1.92
2023-06-11T05:49:24.059Z,1.95
2023-06-11T05:51:52.062Z,1.70
2023-06-11T05:54:20.744Z,2.45
2023-06-11T05:56:48.821Z,2.25
2023-06-11T05:59:18.190Z,2.10
2023-06-11T06:01:47.286Z,2.28
2023-06-11T06:04:18.479Z,2.10
2023-06-11T06:06:47.036Z,2.10
2023-06-11T06:09:15.714Z,2.30
2023-06-11T06:11:44.751Z,1.95
2023-06-11T06:14:12.779Z,2.22
2023-06-11T06:16:42.981Z,2.42
2023-06-11T06:19:15.604Z,2.58
2023-06-11T06:21:43.588Z,2.20
2023-06-11T06:24:12.867Z,2.35
2023-06-11T06:26:42.164Z,2.20
2023-06-11T06:29:11.047Z,2.40
2023-06-11T06:31:39.295Z,2.30
2023-06-11T06:34:09.997Z,2.05
2023-06-11T06:36:40.148Z,2.97
2023-06-11T06:39:10.496Z,2.33
2023-06-11T06:41:39.959Z,2.40
2023-06-11T06:44:14.481Z,2.30
2023-06-11T06:46:42.533Z,2.30
2023-06-11T06:49:11.978Z,2.20
2023-06-11T06:51:40.017Z,2.00
2023-06-11T06:54:08.808Z,2.40
2023-06-11T06:56:37.971Z,2.20
2023-06-11T06:59:07.878Z,2.33
2023-06-11T07:01:37.482Z,2.25
2023-06-11T07:04:06.748Z,2.15
2023-06-11T07:06:37.684Z,2.35
2023-06-11T07:09:06.629Z,2.50
2023-06-11T07:11:35.547Z,2.30
2023-06-11T07:14:04.651Z,2.42
2023-06-11T07:16:33.278Z,2.25
2023-06-11T07:19:03.696Z,2.70
2023-06-11T07:21:32.007Z,2.40
2023-06-11T07:24:05.645Z,2.28
2023-06-11T07:26:34.343Z,2.40
2023-06-11T07:29:02.388Z,2.55
2023-06-11T07:31:30.563Z,2.47
2023-06-11T07:33:58.660Z,2.50
2023-06-11T07:36:26.595Z,2.40
2023-06-11T07:38:54.846Z,1.90
2023-06-11T07:41:24.387Z,2.45
2023-06-11T07:43:52.799Z,3.15
2023-06-11T07:46:24.690Z,2.47
2023-06-11T07:48:52.771Z,2.53
2023-06-11T07:51:22.220Z,2.38
2023-06-11T07:53:57.965Z,2.60
2023-06-11T07:56:28.413Z,2.60
2023-06-11T07:58:56.823Z,2.70
2023-06-11T08:01:24.702Z,2.60
2023-06-11T08:03:52.606Z,2.83
2023-06-11T08:06:21.817Z,2.53
2023-06-11T08:08:49.863Z,2.75
2023-06-11T08:11:17.723Z,2.95
2023-06-11T08:13:47.150Z,3.00
2023-06-11T08:16:16.628Z,2.72
2023-06-11T08:18:44.725Z,2.88
2023-06-11T08:21:12.675Z,2.78
2023-06-11T08:23:41.414Z,2.55
2023-06-11T08:26:10.497Z,3.13
2023-06-11T08:28:38.691Z,2.88
2023-06-11T08:31:08.106Z,2.85
2023-06-11T08:33:36.043Z,2.58
2023-06-11T08:36:04.507Z,2.33
2023-06-11T08:38:32.470Z,2.83
2023-06-11T08:41:00.337Z,2.30
2023-06-11T08:43:28.510Z,2.50
2023-06-11T08:45:56.450Z,3.13
2023-06-11T08:48:26.656Z,2.80
2023-06-11T08:50:56.021Z,2.67
2023-06-11T08:53:24.000Z,2.40
2023-06-11T08:55:51.885Z,2.90
2023-06-11T08:58:22.526Z,2.67
2023-06-11T09:00:50.647Z,3.03
2023-06-11T09:03:18.955Z,2.38
2023-06-11T09:05:49.300Z,2.55
2023-06-11T09:08:17.502Z,2.80
2023-06-11T09:10:52.386Z,2.83
2023-06-11T09:13:21.198Z,2.92
2023-06-11T09:15:50.173Z,3.17
2023-06-11T09:18:23.552Z,2.80
2023-06-11T09:20:54.065Z,2.88
2023-06-11T09:23:31.609Z,3.08
2023-06-11T09:26:00.967Z,3.10
2023-06-11T09:28:32.842Z,3.05
2023-06-11T09:31:02.579Z,3.10
2023-06-11T09:33:32.040Z,2.90
2023-06-11T09:36:01.548Z,3.53
2023-06-11T09:38:29.863Z,3.03
2023-06-11T09:40:59.691Z,3.70
2023-06-11T09:43:27.836Z,3.30
2023-06-11T09:45:56.750Z,3.05
2023-06-11T09:48:25.764Z,3.20
2023-06-11T09:50:55.334Z,3.38
2023-06-11T09:53:25.189Z,3.60
2023-06-11T09:56:09.327Z,3.10
2023-06-11T09:58:41.839Z,3.30
2023-06-11T10:01:10.265Z,3.53
2023-06-11T10:03:38.372Z,3.13
2023-06-11T10:06:09.375Z,3.88
2023-06-11T10:08:39.427Z,3.35
2023-06-11T10:11:08.320Z,3.63
2023-06-11T10:13:38.598Z,4.03
2023-06-11T10:16:09.956Z,3.28
2023-06-11T10:18:38.234Z,3.38
2023-06-11T10:21:06.716Z,3.50
2023-06-11T10:23:40.320Z,3.25
2023-06-11T10:26:09.118Z,3.17
2023-06-11T10:28:38.795Z,3.40
2023-06-11T10:31:07.251Z,3.70
2023-06-11T10:33:39.423Z,4.00
2023-06-11T10:36:07.640Z,3.73
2023-06-11T10:38:40.149Z,3.50
2023-06-11T10:41:08.039Z,3.25
2023-06-11T10:43:38.378Z,3.63
2023-06-11T10:46:08.158Z,3.58
2023-06-11T10:48:36.377Z,3.38
2023-06-11T10:51:06.885Z,3.80
2023-06-11T10:53:41.402Z,3.40
2023-06-11T10:56:10.036Z,3.47
2023-06-11T10:58:38.536Z,3.90
2023-06-11T11:01:08.337Z,3.97
2023-06-11T11:03:37.306Z,3.63
2023-06-11T11:06:05.763Z,3.67
2023-06-11T11:08:33.716Z,3.28
2023-06-11T11:11:03.082Z,3.60
2023-06-11T11:13:31.579Z,3.40
2023-06-11T11:15:59.909Z,3.30
2023-06-11T11:18:27.942Z,3.33
2023-06-11T11:20:56.135Z,4.43
2023-06-11T11:23:25.566Z,4.05
2023-06-11T11:25:53.857Z,4.25
2023-06-11T11:28:23.186Z,3.63
2023-06-11T11:30:53.125Z,4.43
2023-06-11T11:33:21.519Z,4.07
2023-06-11T11:35:51.549Z,3.75
2023-06-11T11:38:19.681Z,4.15
2023-06-11T11:40:47.875Z,3.85
2023-06-11T11:43:15.782Z,8.57
2023-06-11T11:45:49.001Z,4.50
2023-06-11T11:48:18.083Z,4.07
2023-06-11T11:50:50.571Z,4.43
2023-06-11T11:53:19.892Z,3.78
2023-06-11T11:58:21.801Z,4.50
2023-06-11T12:00:53.681Z,3.55
2023-06-11T12:03:23.322Z,4.32
2023-06-11T12:05:59.606Z,3.85
2023-06-11T12:08:28.370Z,4.03
2023-06-11T12:10:56.299Z,4.18
2023-06-11T12:13:24.414Z,5.30
2023-06-11T12:15:54.185Z,3.92
2023-06-11T12:18:22.259Z,4.28
2023-06-11T12:20:50.231Z,3.83
2023-06-11T12:23:18.266Z,4.20
2023-06-11T12:25:46.541Z,4.65
2023-06-11T12:28:14.443Z,4.50
2023-06-11T12:30:43.265Z,4.72
2023-06-11T12:33:12.781Z,4.63
2023-06-11T12:35:41.293Z,4.30
2023-06-11T12:38:09.503Z,4.35
2023-06-11T12:40:38.073Z,4.35
2023-06-11T12:43:06.301Z,4.78
2023-06-11T12:45:38.244Z,4.57
2023-06-11T12:48:07.111Z,4.68
2023-06-11T12:50:36.495Z,4.95
2023-06-11T12:53:05.616Z,5.07
2023-06-11T12:55:33.864Z,4.60
2023-06-11T12:58:02.010Z,4.70
2023-06-11T13:00:31.300Z,5.10
2023-06-11T13:02:59.944Z,4.78
2023-06-11T13:05:28.193Z,5.57
2023-06-11T13:07:59.296Z,4.60
2023-06-11T13:10:27.398Z,4.93
2023-06-11T13:12:56.456Z,4.78
2023-06-11T13:15:24.592Z,5.28
2023-06-11T13:17:52.944Z,5.38
2023-06-11T13:20:22.431Z,5.38
2023-06-11T13:22:51.319Z,5.15
2023-06-11T13:25:20.749Z,5.53
2023-06-11T13:27:49.029Z,5.38
2023-06-11T13:30:17.703Z,4.63
2023-06-11T13:32:45.953Z,5.55
2023-06-11T13:35:14.842Z,5.13
2023-06-11T13:37:43.196Z,5.53
2023-06-11T13:40:12.325Z,4.93
2023-06-11T13:42:42.106Z,5.25
2023-06-11T13:45:10.714Z,5.53
2023-06-11T13:47:38.775Z,5.28
2023-06-11T13:50:08.084Z,5.50
2023-06-11T13:52:36.338Z,5.18
2023-06-11T13:55:04.526Z,4.93
2023-06-11T13:57:32.595Z,5.13
2023-06-11T14:00:02.057Z,5.30
2023-06-11T14:02:39.800Z,5.20
2023-06-11T14:05:08.434Z,4.88
2023-06-11T14:07:36.989Z,5.13
2023-06-11T14:10:06.367Z,5.03
2023-06-11T14:12:34.519Z,5.00
2023-06-11T14:15:04.114Z,5.10
2023-06-11T14:17:34.196Z,4.78
2023-06-11T14:20:04.305Z,4.72
2023-06-11T14:22:32.510Z,5.22
2023-06-11T14:25:00.766Z,4.63
2023-06-11T14:27:28.875Z,5.35
2023-06-11T14:29:57.204Z,4.85
2023-06-11T14:32:27.303Z,5.05
2023-06-11T14:34:55.558Z,4.88
2023-06-11T14:37:23.507Z,4.85
2023-06-11T14:39:51.563Z,5.20
2023-06-11T14:42:19.527Z,4.80
2023-06-11T14:44:48.000Z,4.78
2023-06-11T14:47:16.064Z,4.50
2023-06-11T14:49:45.522Z,4.53
2023-06-11T14:52:13.520Z,4.72
2023-06-11T14:54:41.448Z,4.55
2023-06-11T14:57:13.885Z,4.90
2023-06-11T14:59:43.036Z,5.13
2023-06-11T15:02:11.571Z,5.35
2023-06-11T15:04:40.860Z,4.80
2023-06-11T15:07:29.247Z,4.60
2023-06-11T15:10:02.709Z,4.93
2023-06-11T15:12:30.767Z,5.53
2023-06-11T15:15:01.271Z,4.93
2023-06-11T15:17:30.953Z,4.93
2023-06-11T15:20:00.110Z,4.93
2023-06-11T15:22:29.619Z,4.30
2023-06-11T15:24:57.561Z,4.32
2023-06-11T15:27:25.531Z,4.50
2023-06-11T15:29:53.436Z,4.20
2023-06-11T15:32:21.717Z,4.72
2023-06-11T15:34:49.702Z,4.55
2023-06-11T15:37:18.636Z,4.80
2023-06-11T15:39:51.153Z,4.65
2023-06-11T15:42:19.648Z,5.13
2023-06-11T15:44:49.472Z,4.53
2023-06-11T15:47:18.275Z,4.90
2023-06-11T15:49:46.396Z,4.70
2023-06-11T15:52:14.387Z,4.13
2023-06-11T15:54:42.434Z,4.15
2023-06-11T15:57:12.832Z,4.25
2023-06-11T15:59:41.597Z,4.22
2023-06-11T16:02:09.594Z,4.60
2023-06-11T16:04:37.910Z,4.93
2023-06-11T16:07:07.832Z,4.38
2023-06-11T16:09:36.454Z,4.18
2023-06-11T16:12:05.063Z,3.78
2023-06-11T16:14:34.785Z,4.85
2023-06-11T16:17:03.173Z,4.20
2023-06-11T16:19:31.180Z,4.55
2023-06-11T16:21:59.170Z,4.20
2023-06-11T16:24:27.287Z,4.20
2023-06-11T16:26:55.400Z,4.40
2023-06-11T16:29:23.272Z,4.30
2023-06-11T16:31:52.583Z,4.95
2023-06-11T16:34:20.639Z,4.53
2023-06-11T16:36:48.574Z,4.78
2023-06-11T16:39:25.487Z,4.93
2023-06-11T16:41:55.106Z,4.72
2023-06-11T16:44:23.108Z,4.25
2023-06-11T16:46:53.627Z,4.53
2023-06-11T16:49:21.979Z,4.90
2023-06-11T16:51:49.974Z,4.88
2023-06-11T16:54:19.341Z,4.40
2023-06-11T16:56:47.410Z,4.13
2023-06-11T16:59:15.477Z,4.25
2023-06-11T17:01:43.847Z,4.32
2023-06-11T17:04:13.316Z,4.70
2023-06-11T17:06:42.419Z,4.53
2023-06-11T17:09:10.545Z,4.20
2023-06-11T17:11:38.541Z,3.92
2023-06-11T17:14:06.590Z,4.70
2023-06-11T17:16:34.715Z,4.00
2023-06-11T17:19:04.778Z,4.28
2023-06-11T17:21:35.681Z,4.18
2023-06-11T17:24:04.385Z,4.43
2023-06-11T17:26:33.589Z,4.90
2023-06-11T17:29:03.323Z,4.15
2023-06-11T17:31:31.266Z,4.95
2023-06-11T17:33:59.197Z,4.50
2023-06-11T17:36:27.228Z,4.50
2023-06-11T17:38:56.562Z,4.20
2023-06-11T17:41:25.043Z,4.40
2023-06-11T17:43:53.245Z,4.30
2023-06-11T17:46:21.200Z,4.60
2023-06-11T17:48:49.180Z,4.10
2023-06-11T17:51:17.147Z,4.10
2023-06-11T17:53:45.192Z,4.20
2023-06-11T17:56:14.491Z,4.22
2023-06-11T17:58:42.538Z,4.53
2023-06-11T18:01:10.761Z,4.63
2023-06-11T18:03:38.710Z,4.15
2023-06-11T18:06:06.817Z,4.00
2023-06-11T18:08:34.999Z,4.40
2023-06-11T18:11:02.954Z,4.20
2023-06-11T18:13:32.283Z,3.70
2023-06-11T18:16:00.379Z,4.05
2023-06-11T18:18:28.410Z,4.30
2023-06-11T18:20:56.350Z,4.80
2023-06-11T18:23:24.355Z,4.28
2023-06-11T18:25:52.543Z,4.35
2023-06-11T18:28:20.482Z,4.03
2023-06-11T18:30:49.805Z,4.10
2023-06-11T18:33:17.754Z,3.80
2023-06-11T18:35:45.977Z,3.90
2023-06-11T18:38:13.990Z,3.90
2023-06-11T18:40:42.068Z,3.92
2023-06-11T18:43:10.006Z,4.30
2023-06-11T18:45:38.374Z,4.10
2023-06-11T18:48:07.906Z,4.30
2023-06-11T18:50:36.212Z,4.40
2023-06-11T18:53:04.272Z,3.92
2023-06-11T18:55:32.841Z,4.03
2023-06-11T18:58:04.090Z,4.10
2023-06-11T19:00:32.137Z,3.85
2023-06-11T19:03:00.321Z,4.18
2023-06-11T19:05:29.849Z,4.05
2023-06-11T19:07:57.752Z,4.55
2023-06-11T19:10:25.832Z,4.00
2023-06-11T19:12:54.967Z,4.05
2023-06-11T19:15:23.274Z,4.07
2023-06-11T19:17:51.281Z,4.47
2023-06-11T19:20:19.249Z,4.13
2023-06-11T19:22:48.501Z,4.15
2023-06-11T19:25:16.648Z,4.40
2023-06-11T19:27:44.658Z,4.15
2023-06-11T19:30:15.113Z,4.10
2023-06-11T19:32:43.758Z,4.20
2023-06-11T19:35:11.790Z,4.05
2023-06-11T19:37:39.654Z,3.95
2023-06-11T19:40:12.236Z,4.45
2023-06-11T19:42:40.502Z,4.25
2023-06-11T19:45:10.817Z,4.38
2023-06-11T19:47:39.331Z,4.18
2023-06-11T19:50:08.452Z,3.92
2023-06-11T19:52:36.668Z,3.70
2023-06-11T19:55:05.349Z,4.05
2023-06-11T19:57:34.807Z,3.75
2023-06-11T20:00:02.798Z,4.10
2023-06-11T20:02:40.611Z,3.80
2023-06-11T20:05:09.821Z,3.53
2023-06-11T20:07:37.738Z,3.97
2023-06-11T20:10:06.694Z,4.38
2023-06-11T20:12:35.970Z,4.03
2023-06-11T20:15:04.184Z,4.03
2023-06-11T20:17:32.174Z,4.00
2023-06-11T20:20:00.384Z,3.92
2023-06-11T20:22:28.296Z,4.80
2023-06-11T20:24:56.242Z,4.13
2023-06-11T20:27:25.226Z,4.00
2023-06-11T20:29:54.482Z,4.15
2023-06-11T20:32:22.901Z,4.38
2023-06-11T20:34:51.029Z,4.22
2023-06-11T20:37:18.919Z,4.30
2023-06-11T20:39:46.801Z,3.75
2023-06-11T20:42:15.221Z,3.90
2023-06-11T20:44:43.180Z,3.90
2023-06-11T20:47:12.689Z,4.18
2023-06-11T20:49:41.500Z,3.80
2023-06-11T20:52:09.829Z,3.78
2023-06-11T20:54:37.776Z,4.32
2023-06-11T20:57:06.879Z,4.03
2023-06-11T20:59:34.860Z,4.28
2023-06-11T21:02:02.834Z,3.67
2023-06-11T21:04:32.271Z,4.70
2023-06-11T21:07:00.779Z,4.13
2023-06-11T21:09:28.750Z,4.50
2023-06-11T21:11:57.064Z,4.45
2023-06-11T21:14:27.277Z,4.30
2023-06-11T21:16:55.406Z,3.83
2023-06-11T21:19:23.393Z,3.92
2023-06-11T21:21:52.795Z,4.07
2023-06-11T21:24:21.089Z,4.07
2023-06-11T21:26:49.062Z,3.80
2023-06-11T21:29:17.010Z,3.95
2023-06-11T21:31:45.026Z,4.20
2023-06-11T21:34:13.107Z,3.88
2023-06-11T21:36:41.167Z,4.45
2023-06-11T21:39:10.707Z,4.10
2023-06-11T21:41:38.660Z,3.95
2023-06-11T21:44:06.782Z,4.00
2023-06-11T21:46:34.779Z,3.90
2023-06-11T21:49:03.149Z,3.70
2023-06-11T21:51:31.336Z,4.18
2023-06-11T21:53:59.253Z,4.53
2023-06-11T21:56:28.670Z,4.53
2023-06-11T21:58:56.713Z,4.57
2023-06-11T22:01:24.646Z,4.60
2023-06-11T22:03:52.654Z,3.90
2023-06-11T22:06:20.636Z,3.75
2023-06-11T22:08:48.517Z,4.25
2023-06-11T22:11:16.596Z,3.70
2023-06-11T22:13:46.065Z,3.80
2023-06-11T22:16:14.109Z,3.80
2023-06-11T22:18:44.982Z,4.10
2023-06-11T22:21:15.040Z,4.22
2023-06-11T22:23:50.739Z,3.90
2023-06-11T22:26:22.720Z,4.40
2023-06-11T22:28:52.639Z,4.28
2023-06-11T22:31:20.608Z,5.20
2023-06-11T22:33:48.710Z,3.90
2023-06-11T22:36:16.700Z,4.20
2023-06-11T22:38:44.723Z,3.97
2023-06-11T22:41:12.689Z,3.75
2023-06-11T22:43:41.094Z,4.13
2023-06-11T22:46:10.414Z,3.95
2023-06-11T22:48:38.358Z,3.78
2023-06-11T22:51:11.016Z,4.57
2023-06-11T22:53:39.204Z,3.63
2023-06-11T22:56:07.917Z,3.38
2023-06-11T22:58:35.999Z,4.13
2023-06-11T23:01:04.251Z,4.10
2023-06-11T23:03:33.652Z,3.92
2023-06-11T23:06:01.827Z,3.95
2023-06-11T23:08:30.006Z,3.85
2023-06-11T23:10:57.942Z,3.83
2023-06-11T23:13:26.104Z,4.03
2023-06-11T23:15:54.168Z,4.10
2023-06-11T23:18:25.311Z,4.55
2023-06-11T23:20:55.050Z,4.28
2023-06-11T23:23:23.537Z,4.53
2023-06-11T23:25:51.686Z,3.85
2023-06-11T23:28:23.373Z,3.95
2023-06-11T23:30:53.275Z,3.90
2023-06-11T23:33:23.451Z,4.20
2023-06-11T23:35:51.909Z,4.05
2023-06-11T23:38:21.254Z,3.67
2023-06-11T23:40:49.487Z,4.20
2023-06-11T23:43:17.433Z,3.90
2023-06-11T23:45:45.499Z,3.85
2023-06-11T23:48:13.419Z,4.43
2023-06-11T23:50:43.051Z,3.95
2023-06-11T23:53:11.686Z,3.65
2023-06-11T23:55:43.094Z,3.60
2023-06-11T23:58:19.116Z,3.65
